Time;durP1;ratioP1;P1;durP2;ratioP2;P2;SDS_P1;SDS_P2;PMS_P1;PMS_P2;Temp;Humidity;BMP_temperature;BMP_pressure;BME280_temperature;BME280_humidity;BME280_pressure;Samples;Min_cycle;Max_cycle;Signal;HPM_P1;HPM_P2
2022/10/09 00:01:04;;;;;;;27.60;20.90;;;15.30;99.90;;;;;;5136515;27;20434;-71
2022/10/09 00:03:30;;;;;;;30.57;21.77;;;15.20;99.90;;;;;;5137263;27;20411;-71
2022/10/09 00:05:56;;;;;;;29.83;22.20;;;15.20;99.90;;;;;;5136708;27;20922;-70
2022/10/09 00:08:22;;;;;;;33.83;22.90;;;15.20;99.90;;;;;;5137071;27;20415;-70
2022/10/09 00:10:48;;;;;;;29.80;22.80;;;15.20;99.90;;;;;;5136665;27;20195;-70
2022/10/09 00:13:14;;;;;;;28.87;23.40;;;15.20;99.90;;;;;;5136591;27;20616;-70
2022/10/09 00:15:41;;;;;;;29.03;22.13;;;15.20;99.90;;;;;;5118159;27;20509;-70
2022/10/09 00:18:09;;;;;;;32.37;25.37;;;15.20;99.90;;;;;;5136898;27;20923;-72
2022/10/09 00:20:36;;;;;;;26.17;22.13;;;15.10;99.90;;;;;;5136612;27;20431;-71
2022/10/09 00:23:02;;;;;;;27.07;22.87;;;15.10;99.90;;;;;;5117811;27;20495;-70
2022/10/09 00:25:27;;;;;;;27.83;22.57;;;15.10;99.90;;;;;;5136411;27;20954;-70
2022/10/09 00:27:55;;;;;;;35.73;23.23;;;15.10;99.90;;;;;;5136559;27;20747;-70
2022/10/09 00:30:20;;;;;;;27.20;22.57;;;15.00;99.90;;;;;;5136284;27;20202;-70
2022/10/09 00:32:46;;;;;;;26.43;22.40;;;15.00;99.90;;;;;;5117906;27;20441;-70
2022/10/09 00:35:12;;;;;;;27.10;21.40;;;15.00;99.90;;;;;;5136153;27;20198;-70
2022/10/09 00:37:37;;;;;;;27.97;21.90;;;15.00;99.90;;;;;;5136354;27;20612;-70
2022/10/09 00:40:03;;;;;;;30.83;22.80;;;14.90;99.90;;;;;;5136047;27;20586;-70
2022/10/09 00:42:29;;;;;;;30.30;25.20;;;15.00;99.90;;;;;;5136293;27;20194;-71
2022/10/09 00:44:58;;;;;;;31.13;21.73;;;14.90;99.90;;;;;;5136010;27;20431;-71
2022/10/09 00:47:38;;;;;;;29.10;23.73;;;14.90;99.90;;;;;;5136044;27;20210;-71
2022/10/09 00:50:09;;;;;;;31.20;24.20;;;14.90;99.90;;;;;;5135929;27;20479;-71
2022/10/09 00:52:34;;;;;;;31.70;22.30;;;14.90;99.90;;;;;;5136103;27;20407;-71
2022/10/09 00:55:02;;;;;;;27.43;22.80;;;14.90;99.90;;;;;;5117325;27;20462;-71
2022/10/09 00:57:30;;;;;;;31.60;23.60;;;14.90;99.90;;;;;;5135914;27;20171;-70
2022/10/09 00:59:56;;;;;;;32.47;22.43;;;14.80;99.90;;;;;;5135829;27;20825;-70
2022/10/09 01:02:22;;;;;;;27.87;22.20;;;14.80;99.90;;;;;;5135810;27;20464;-70
2022/10/09 01:04:47;;;;;;;29.90;21.40;;;14.80;99.90;;;;;;5117139;27;20427;-70
2022/10/09 01:07:17;;;;;;;27.97;22.07;;;14.80;99.90;;;;;;5135546;27;20222;-71
2022/10/09 01:09:43;;;;;;;34.57;22.23;;;14.80;99.90;;;;;;5116875;27;20681;-71
2022/10/09 01:12:24;;;;;;;32.37;22.43;;;14.80;99.90;;;;;;5135504;27;20411;-71
2022/10/09 01:15:31;;;;;;;31.97;23.40;;;14.80;99.90;;;;;;5135484;27;20223;-71
2022/10/09 01:18:35;;;;;;;29.57;21.23;;;14.70;99.90;;;;;;5134962;27;20427;-70
2022/10/09 01:21:12;;;;;;;31.30;21.80;;;14.70;99.90;;;;;;5116846;27;20439;-70
2022/10/09 01:24:00;;;;;;;27.90;20.77;;;14.70;99.90;;;;;;5135324;27;20455;-71
2022/10/09 01:26:59;;;;;;;28.27;22.50;;;14.60;99.90;;;;;;5135266;27;20459;-71
2022/10/09 01:29:31;;;;;;;33.03;22.03;;;14.60;99.90;;;;;;5135282;27;20403;-70
2022/10/09 01:31:58;;;;;;;29.40;22.07;;;14.60;99.90;;;;;;5135184;27;20384;-70
2022/10/09 01:34:26;;;;;;;29.53;22.53;;;14.60;99.90;;;;;;5116702;27;20489;-70
2022/10/09 01:36:54;;;;;;;29.67;23.13;;;14.50;99.90;;;;;;5116636;27;20410;-70
2022/10/09 01:39:22;;;;;;;26.57;21.23;;;14.50;99.90;;;;;;5116529;27;20405;-70
2022/10/09 01:41:50;;;;;;;29.47;22.03;;;14.50;99.90;;;;;;5135000;27;20878;-71
2022/10/09 01:44:27;;;;;;;27.97;23.40;;;14.50;99.90;;;;;;5116478;27;20403;-70
2022/10/09 01:46:53;;;;;;;28.30;22.37;;;14.40;99.90;;;;;;5134968;27;20602;-70
2022/10/09 01:49:48;;;;;;;30.07;23.07;;;14.40;99.90;;;;;;5134903;27;20392;-71
2022/10/09 01:52:31;;;;;;;30.83;22.80;;;14.40;99.90;;;;;;5135234;27;20389;-71
2022/10/09 01:55:31;;;;;;;31.50;23.73;;;14.30;99.90;;;;;;5116357;27;20439;-71
2022/10/09 01:58:09;;;;;;;31.60;23.40;;;14.40;99.90;;;;;;5116564;27;20434;-71
2022/10/09 02:00:38;;;;;;;28.17;22.00;;;14.30;99.90;;;;;;5116250;27;20541;-71
2022/10/09 02:03:08;;;;;;;29.10;22.60;;;14.30;99.90;;;;;;5135050;27;20418;-70
2022/10/09 02:05:35;;;;;;;28.60;22.30;;;14.30;99.90;;;;;;5134783;27;20438;-71
2022/10/09 02:08:02;;;;;;;32.07;22.73;;;14.30;99.90;;;;;;5116185;28;20474;-70
2022/10/09 02:10:29;;;;;;;26.60;22.27;;;14.30;99.90;;;;;;5134672;27;20429;-71
2022/10/09 02:12:59;;;;;;;30.20;23.20;;;14.30;99.90;;;;;;5116403;28;20910;-70
2022/10/09 02:15:40;;;;;;;26.50;22.83;;;14.30;99.90;;;;;;5134615;27;20419;-71
2022/10/09 02:18:11;;;;;;;29.90;21.00;;;14.30;99.90;;;;;;5134964;28;20433;-70
2022/10/09 02:20:40;;;;;;;32.73;25.30;;;14.20;99.90;;;;;;5134748;27;20419;-71
2022/10/09 02:23:08;;;;;;;31.87;23.50;;;14.20;99.90;;;;;;5118495;27;21006;-71
2022/10/09 02:25:34;;;;;;;33.07;24.37;;;14.20;99.90;;;;;;5138734;27;20438;-70
2022/10/09 02:28:02;;;;;;;31.83;23.63;;;14.20;99.90;;;;;;5138870;27;20466;-70
2022/10/09 02:30:38;;;;;;;28.20;23.63;;;14.20;99.90;;;;;;5120221;27;20419;-70
2022/10/09 02:33:04;;;;;;;33.13;25.13;;;14.10;99.90;;;;;;5138977;27;20410;-70
2022/10/09 02:35:31;;;;;;;29.40;24.80;;;14.20;99.90;;;;;;5138527;27;20430;-70
2022/10/09 02:37:56;;;;;;;34.23;26.20;;;14.10;99.90;;;;;;5138753;27;20500;-70
2022/10/09 02:40:22;;;;;;;33.90;25.77;;;14.10;99.90;;;;;;5138565;27;20454;-71
2022/10/09 02:42:48;;;;;;;33.30;25.57;;;14.10;99.90;;;;;;5138402;27;20171;-71
2022/10/09 02:45:13;;;;;;;35.50;26.73;;;14.10;99.90;;;;;;5138343;27;20247;-70
2022/10/09 02:47:39;;;;;;;36.70;26.37;;;14.10;99.90;;;;;;5119907;27;20873;-70
2022/10/09 02:50:05;;;;;;;31.83;25.83;;;14.10;99.90;;;;;;5138188;27;20275;-70
2022/10/09 02:52:31;;;;;;;37.20;26.97;;;14.10;99.90;;;;;;5138484;27;20171;-70
2022/10/09 02:54:56;;;;;;;38.60;25.60;;;14.10;99.90;;;;;;5138159;27;20518;-70
2022/10/09 02:57:22;;;;;;;36.50;26.50;;;14.10;99.90;;;;;;5138328;27;20175;-70
2022/10/09 02:59:47;;;;;;;40.70;26.90;;;14.10;99.90;;;;;;5138128;27;20205;-70
2022/10/09 03:02:13;;;;;;;34.67;26.17;;;14.10;99.90;;;;;;5138136;27;20208;-70
2022/10/09 03:04:38;;;;;;;32.50;24.57;;;14.10;99.90;;;;;;5138027;27;20225;-70
2022/10/09 03:07:04;;;;;;;32.70;25.97;;;14.10;99.90;;;;;;5137971;27;20572;-70
2022/10/09 03:09:30;;;;;;;28.37;25.20;;;14.10;99.90;;;;;;5137916;27;20202;-71
2022/10/09 03:11:55;;;;;;;32.43;25.97;;;14.10;99.90;;;;;;5119462;27;20316;-71
2022/10/09 03:14:21;;;;;;;31.60;23.90;;;14.10;99.90;;;;;;5137957;27;20175;-70
2022/10/09 03:16:47;;;;;;;32.40;24.70;;;14.10;99.90;;;;;;5137863;27;20167;-70
2022/10/09 03:19:12;;;;;;;33.57;26.33;;;14.20;99.90;;;;;;5119245;27;20190;-70
2022/10/09 03:21:38;;;;;;;30.53;24.93;;;14.20;99.90;;;;;;5137828;27;20174;-70
2022/10/09 03:24:03;;;;;;;31.40;25.70;;;14.20;99.90;;;;;;5137821;27;20218;-70
2022/10/09 03:26:29;;;;;;;31.63;24.30;;;14.20;99.90;;;;;;5119026;27;20295;-70
2022/10/09 03:28:55;;;;;;;34.70;25.07;;;14.20;99.90;;;;;;5119363;27;20176;-70
2022/10/09 03:31:23;;;;;;;30.50;25.27;;;14.20;99.90;;;;;;5137572;27;20191;-70
2022/10/09 03:33:49;;;;;;;31.97;24.50;;;14.30;99.90;;;;;;5137781;27;20172;-70
2022/10/09 03:36:15;;;;;;;31.83;25.23;;;14.30;99.90;;;;;;5137318;27;20431;-70
2022/10/09 03:38:40;;;;;;;31.27;25.70;;;14.30;99.90;;;;;;5137838;27;20186;-71
2022/10/09 03:41:06;;;;;;;34.10;26.07;;;14.30;99.90;;;;;;5137208;27;20992;-71
2022/10/09 03:43:32;;;;;;;30.77;23.73;;;14.30;99.90;;;;;;5119034;27;20191;-71
2022/10/09 03:45:58;;;;;;;35.03;26.67;;;14.30;99.90;;;;;;5137062;27;20194;-70
2022/10/09 03:48:24;;;;;;;29.93;24.57;;;14.30;99.90;;;;;;5137550;27;20481;-71
2022/10/09 03:50:50;;;;;;;36.13;26.77;;;14.30;99.90;;;;;;5118708;27;20202;-70
2022/10/09 03:53:16;;;;;;;34.70;27.60;;;14.30;99.90;;;;;;5137314;27;20175;-70
2022/10/09 03:55:42;;;;;;;30.70;23.57;;;14.30;99.90;;;;;;5118506;27;21019;-70
2022/10/09 03:58:09;;;;;;;33.93;26.53;;;14.30;99.90;;;;;;5118637;27;20434;-70
2022/10/09 04:00:35;;;;;;;30.07;24.30;;;14.30;99.90;;;;;;5118906;27;20529;-70
2022/10/09 04:03:01;;;;;;;33.00;24.47;;;14.40;99.90;;;;;;5137236;27;20416;-70
2022/10/09 04:05:28;;;;;;;37.53;26.33;;;14.40;99.90;;;;;;5136915;27;20431;-70
2022/10/09 04:07:54;;;;;;;31.33;24.73;;;14.40;99.90;;;;;;5136920;27;20462;-70
2022/10/09 04:10:19;;;;;;;36.93;27.77;;;14.40;99.90;;;;;;5136725;27;20433;-71
2022/10/09 04:12:45;;;;;;;32.83;24.10;;;14.40;99.90;;;;;;5136965;27;20167;-70
2022/10/09 04:15:11;;;;;;;31.47;23.77;;;14.40;99.90;;;;;;5136637;27;20269;-70
2022/10/09 04:17:36;;;;;;;32.40;25.43;;;14.40;99.90;;;;;;5136834;27;20179;-70
2022/10/09 04:20:02;;;;;;;32.17;25.80;;;14.50;99.90;;;;;;5136587;27;20222;-70
2022/10/09 04:22:28;;;;;;;32.40;25.30;;;14.50;99.90;;;;;;5136366;27;20179;-70
2022/10/09 04:24:53;;;;;;;34.07;26.10;;;14.50;99.90;;;;;;5136447;27;20506;-70
2022/10/09 04:27:19;;;;;;;33.37;25.67;;;14.50;99.90;;;;;;5136421;27;20215;-70
2022/10/09 04:29:45;;;;;;;29.57;25.17;;;14.50;99.90;;;;;;5117986;27;20194;-70
2022/10/09 04:32:10;;;;;;;34.07;25.23;;;14.50;99.90;;;;;;5117909;27;20411;-70
2022/10/09 04:34:36;;;;;;;35.00;25.27;;;14.50;99.90;;;;;;5136425;27;20679;-70
2022/10/09 04:37:01;;;;;;;29.87;24.40;;;14.50;99.90;;;;;;5117932;27;20171;-71
2022/10/09 04:39:27;;;;;;;33.03;25.40;;;14.50;99.90;;;;;;5136262;27;20666;-70
2022/10/09 04:41:53;;;;;;;34.53;25.40;;;14.60;99.90;;;;;;5136158;27;20258;-70
2022/10/09 04:44:18;;;;;;;32.00;24.13;;;14.60;99.90;;;;;;5117815;27;20175;-70
2022/10/09 04:46:44;;;;;;;34.67;25.20;;;14.60;99.90;;;;;;5135497;27;20209;-70
2022/10/09 04:49:13;;;;;;;37.20;26.70;;;14.60;99.90;;;;;;5117534;27;20218;-70
2022/10/09 04:51:40;;;;;;;32.10;24.80;;;14.60;99.90;;;;;;5117608;27;20673;-70
2022/10/09 04:54:06;;;;;;;32.93;24.80;;;14.60;99.90;;;;;;5136337;27;20414;-70
2022/10/09 04:56:32;;;;;;;31.13;25.07;;;14.60;99.90;;;;;;5135820;27;20793;-70
2022/10/09 04:58:57;;;;;;;32.93;26.83;;;14.70;99.90;;;;;;5117597;27;20430;-71
2022/10/09 05:01:25;;;;;;;34.97;26.07;;;14.70;99.90;;;;;;5135722;27;20183;-70
2022/10/09 05:03:51;;;;;;;32.60;24.50;;;14.70;99.90;;;;;;5136259;27;20177;-70
2022/10/09 05:06:18;;;;;;;35.93;26.40;;;14.60;99.90;;;;;;5135471;27;20484;-70
2022/10/09 05:08:44;;;;;;;35.13;25.90;;;14.70;99.90;;;;;;5136085;27;20421;-71
2022/10/09 05:11:13;;;;;;;29.60;24.10;;;14.60;99.90;;;;;;5135579;27;20979;-70
2022/10/09 05:13:42;;;;;;;32.10;26.57;;;14.60;99.90;;;;;;5135507;27;20212;-70
2022/10/09 05:16:14;;;;;;;38.80;25.00;;;14.60;99.90;;;;;;5116992;27;20439;-70
2022/10/09 05:18:42;;;;;;;31.00;25.03;;;14.70;99.90;;;;;;5135889;27;20459;-72
2022/10/09 05:21:08;;;;;;;34.00;26.40;;;14.70;99.90;;;;;;5116888;27;20431;-70
2022/10/09 05:23:34;;;;;;;31.50;25.00;;;14.70;99.90;;;;;;5113480;28;20787;-71
2022/10/09 05:26:02;;;;;;;33.53;25.83;;;14.70;99.90;;;;;;5114730;28;20431;-70
2022/10/09 05:28:28;;;;;;;32.43;26.13;;;14.70;99.90;;;;;;5115126;28;20448;-70
2022/10/09 05:30:54;;;;;;;31.27;25.50;;;14.70;99.90;;;;;;5114622;28;20428;-71
2022/10/09 05:33:20;;;;;;;31.57;24.23;;;14.80;99.90;;;;;;5114579;28;20477;-71
2022/10/09 05:35:51;;;;;;;32.10;24.00;;;14.80;99.90;;;;;;5114540;28;20684;-70
2022/10/09 05:38:17;;;;;;;37.40;26.80;;;14.80;99.90;;;;;;5113431;28;20420;-70
2022/10/09 05:40:57;;;;;;;30.37;22.93;;;14.80;99.90;;;;;;5114476;28;20442;-70
2022/10/09 05:43:25;;;;;;;31.70;24.07;;;14.80;99.90;;;;;;5113381;28;20446;-70
2022/10/09 05:45:51;;;;;;;36.10;26.17;;;14.80;99.90;;;;;;5113056;28;20443;-70
2022/10/09 05:48:17;;;;;;;32.87;25.00;;;14.80;99.90;;;;;;5114663;28;20505;-71
2022/10/09 05:50:43;;;;;;;29.90;24.43;;;14.80;99.90;;;;;;5113120;28;20464;-70
2022/10/09 05:53:08;;;;;;;31.03;24.37;;;14.80;99.90;;;;;;5114606;28;20496;-70
2022/10/09 05:55:34;;;;;;;31.63;24.47;;;14.80;99.90;;;;;;5114220;28;20712;-70
2022/10/09 05:58:00;;;;;;;31.20;24.20;;;14.90;99.90;;;;;;5113605;28;20636;-70
2022/10/09 06:00:25;;;;;;;33.97;24.47;;;14.80;99.90;;;;;;5114250;28;20664;-70
2022/10/09 06:02:51;;;;;;;33.43;24.50;;;14.90;99.90;;;;;;5114415;28;20171;-71
2022/10/09 06:05:16;;;;;;;30.97;23.00;;;14.90;99.90;;;;;;5112773;28;20203;-70
2022/10/09 06:07:42;;;;;;;32.67;22.30;;;14.90;99.90;;;;;;5112918;28;20246;-71
2022/10/09 06:10:08;;;;;;;31.17;23.47;;;15.00;99.90;;;;;;5112774;28;20203;-71
2022/10/09 06:12:34;;;;;;;26.50;21.20;;;15.00;99.90;;;;;;5114328;28;20187;-70
2022/10/09 06:15:00;;;;;;;31.67;24.30;;;15.00;99.90;;;;;;5114041;28;20434;-70
2022/10/09 06:17:25;;;;;;;30.00;22.97;;;15.10;99.90;;;;;;5112840;28;20408;-71
2022/10/09 06:19:51;;;;;;;26.17;22.43;;;15.10;99.90;;;;;;5114038;28;20199;-71
2022/10/09 06:22:16;;;;;;;28.57;23.00;;;15.10;99.90;;;;;;5113117;28;20171;-71
2022/10/09 06:24:42;;;;;;;29.47;21.63;;;15.10;99.90;;;;;;5134589;27;20247;-71
2022/10/09 06:27:07;;;;;;;31.50;22.83;;;15.20;99.90;;;;;;5134537;28;20214;-71
2022/10/09 06:29:33;;;;;;;27.60;22.80;;;15.20;99.90;;;;;;5134439;27;20195;-71
2022/10/09 06:31:59;;;;;;;29.10;23.50;;;15.20;99.90;;;;;;5116089;28;20705;-70
2022/10/09 06:34:24;;;;;;;27.47;21.93;;;15.30;99.90;;;;;;5116123;27;20182;-70
2022/10/09 06:36:50;;;;;;;30.20;22.97;;;15.30;99.90;;;;;;5116020;28;20171;-70
2022/10/09 06:39:15;;;;;;;27.47;21.97;;;15.30;99.90;;;;;;5116028;27;20171;-71
2022/10/09 06:41:41;;;;;;;28.90;21.70;;;15.40;99.90;;;;;;5134511;28;20171;-71
2022/10/09 06:44:10;;;;;;;36.13;22.40;;;15.40;99.90;;;;;;5116103;28;20196;-70
2022/10/09 06:46:39;;;;;;;27.47;22.50;;;15.40;99.90;;;;;;5134304;28;20207;-71
2022/10/09 06:49:06;;;;;;;31.50;23.07;;;15.50;99.90;;;;;;5134828;28;20432;-70
2022/10/09 06:51:34;;;;;;;29.77;23.27;;;15.50;99.90;;;;;;5134342;27;20509;-70
2022/10/09 06:54:01;;;;;;;32.47;24.13;;;15.50;99.90;;;;;;5116068;28;20835;-70
2022/10/09 06:56:29;;;;;;;31.73;26.33;;;15.50;99.90;;;;;;5134075;27;20443;-70
2022/10/09 06:58:55;;;;;;;30.97;25.00;;;15.50;99.90;;;;;;5134664;28;20410;-71
2022/10/09 07:01:25;;;;;;;31.30;24.40;;;15.50;99.90;;;;;;5115853;28;20423;-71
2022/10/09 07:03:56;;;;;;;31.40;25.00;;;15.60;99.90;;;;;;5134765;28;20456;-71
2022/10/09 07:06:24;;;;;;;30.43;25.93;;;15.70;99.90;;;;;;5115680;28;20455;-70
2022/10/09 07:08:53;;;;;;;33.73;25.83;;;15.70;99.90;;;;;;5136423;27;20408;-70
2022/10/09 07:11:24;;;;;;;34.00;24.30;;;15.70;99.90;;;;;;5119458;27;20584;-70
2022/10/09 07:13:55;;;;;;;33.73;26.33;;;15.80;99.90;;;;;;5138385;27;20419;-71
2022/10/09 07:16:24;;;;;;;32.93;25.33;;;15.80;99.90;;;;;;5137859;27;20434;-71
2022/10/09 07:18:50;;;;;;;31.40;25.20;;;15.90;99.90;;;;;;5138313;27;20402;-70
2022/10/09 07:21:17;;;;;;;32.13;26.07;;;15.90;99.90;;;;;;5119309;27;20442;-71
2022/10/09 07:23:42;;;;;;;35.50;26.33;;;16.00;99.90;;;;;;5137604;27;20451;-71
2022/10/09 07:26:20;;;;;;;31.67;25.97;;;16.10;99.90;;;;;;5137522;27;20430;-72
2022/10/09 07:28:47;;;;;;;31.60;25.83;;;16.10;99.90;;;;;;5119435;27;20182;-71
2022/10/09 07:31:13;;;;;;;34.47;26.83;;;16.30;99.90;;;;;;5137370;27;21027;-71
2022/10/09 07:33:40;;;;;;;31.63;25.90;;;16.40;99.90;;;;;;5137956;27;20759;-71
2022/10/09 07:36:07;;;;;;;34.10;26.10;;;16.50;99.90;;;;;;5137346;27;20434;-71
2022/10/09 07:38:33;;;;;;;32.33;26.33;;;16.70;99.90;;;;;;5137759;27;20433;-71
2022/10/09 07:41:03;;;;;;;31.80;25.47;;;16.90;99.90;;;;;;5118853;27;20427;-70
2022/10/09 07:43:29;;;;;;;28.07;25.07;;;17.10;99.90;;;;;;5137792;27;20179;-70
2022/10/09 07:45:59;;;;;;;28.60;25.50;;;17.30;99.90;;;;;;5118883;27;20450;-70
2022/10/09 07:48:25;;;;;;;30.70;25.17;;;17.60;99.90;;;;;;5118923;27;20463;-70
2022/10/09 07:50:50;;;;;;;27.90;23.67;;;17.90;99.90;;;;;;5118724;27;20454;-71
2022/10/09 07:53:16;;;;;;;31.53;24.63;;;18.30;99.90;;;;;;5137423;27;20186;-71
2022/10/09 07:55:45;;;;;;;25.73;22.90;;;18.80;99.90;;;;;;5118726;27;20197;-71
2022/10/09 07:58:12;;;;;;;27.93;23.47;;;19.40;99.90;;;;;;5137340;27;20500;-71
2022/10/09 08:00:38;;;;;;;24.73;21.70;;;20.00;99.90;;;;;;5118428;27;20427;-71
2022/10/09 08:03:03;;;;;;;30.93;22.80;;;20.70;99.90;;;;;;5137170;27;20411;-71
2022/10/09 08:05:29;;;;;;;26.30;23.43;;;21.50;99.90;;;;;;5136911;27;20194;-71
2022/10/09 08:07:55;;;;;;;25.83;20.90;;;22.30;99.90;;;;;;5136991;27;20211;-71
2022/10/09 08:10:20;;;;;;;24.43;21.63;;;23.20;99.90;;;;;;5136737;27;20198;-71
2022/10/09 08:12:46;;;;;;;23.23;20.90;;;23.90;99.90;;;;;;5136949;27;20172;-71
2022/10/09 08:15:12;;;;;;;24.33;21.40;;;24.50;99.90;;;;;;5136657;27;20239;-71
2022/10/09 08:17:38;;;;;;;21.90;19.40;;;25.10;99.90;;;;;;5118281;27;20346;-71
2022/10/09 08:20:04;;;;;;;22.87;20.67;;;25.60;99.90;;;;;;5117209;27;20241;-71
2022/10/09 08:22:30;;;;;;;23.70;21.27;;;26.10;99.90;;;;;;5117877;27;20938;-71
2022/10/09 08:24:56;;;;;;;23.73;21.23;;;26.50;99.90;;;;;;5117957;27;20428;-71
2022/10/09 08:27:22;;;;;;;21.07;18.90;;;26.80;99.90;;;;;;5117911;27;20561;-71
2022/10/09 08:29:48;;;;;;;21.23;19.00;;;27.20;99.90;;;;;;5136416;27;20194;-71
2022/10/09 08:32:13;;;;;;;22.03;19.70;;;27.60;99.90;;;;;;5117815;27;20468;-71
2022/10/09 08:34:39;;;;;;;21.20;18.97;;;27.90;99.90;;;;;;5117862;27;20631;-71
2022/10/09 08:37:04;;;;;;;20.40;18.40;;;28.20;99.90;;;;;;5136269;27;20179;-71
2022/10/09 08:39:31;;;;;;;18.97;17.03;;;28.20;99.90;;;;;;5136235;27;20277;-71
2022/10/09 08:42:00;;;;;;;20.40;17.77;;;28.00;99.90;;;;;;5117693;27;20171;-71
2022/10/09 08:44:38;;;;;;;20.77;18.67;;;27.70;99.90;;;;;;5136245;27;20400;-71
2022/10/09 08:47:07;;;;;;;20.10;18.00;;;27.30;99.90;;;;;;5135990;27;20962;-71
2022/10/09 08:49:42;;;;;;;20.73;18.57;;;26.80;99.90;;;;;;5117521;27;20446;-72
2022/10/09 08:52:46;;;;;;;20.00;18.10;;;26.40;99.90;;;;;;5136099;27;20415;-72
2022/10/09 08:55:22;;;;;;;21.67;19.40;;;26.00;99.90;;;;;;5096609;27;20947;-71
2022/10/09 08:57:50;;;;;;;20.27;18.17;;;25.70;99.90;;;;;;5117580;27;20445;-71
2022/10/09 09:00:19;;;;;;;22.07;19.83;;;25.40;99.90;;;;;;5135877;27;20833;-70
2022/10/09 09:03:18;;;;;;;22.50;20.10;;;25.10;99.90;;;;;;5117346;27;20453;-72
2022/10/09 09:05:50;;;;;;;23.27;19.20;;;24.90;99.90;;;;;;5117249;27;20844;-71
2022/10/09 09:08:29;;;;;;;21.73;19.30;;;24.60;99.90;;;;;;5135802;27;20824;-71
2022/10/09 09:11:09;;;;;;;22.00;19.10;;;24.30;99.90;;;;;;5135570;27;20425;-71
2022/10/09 09:13:48;;;;;;;22.60;20.27;;;24.10;99.90;;;;;;5117331;27;20420;-71
2022/10/09 09:16:29;;;;;;;19.70;17.70;;;23.90;99.90;;;;;;5117114;27;20864;-71
2022/10/09 09:19:31;;;;;;;24.10;19.30;;;23.70;99.90;;;;;;5136052;27;20428;-71
2022/10/09 09:21:57;;;;;;;20.27;18.37;;;23.60;99.90;;;;;;5135438;27;20885;-71
2022/10/09 09:24:38;;;;;;;21.10;19.00;;;23.50;99.90;;;;;;5135430;27;20467;-71
2022/10/09 09:27:14;;;;;;;22.07;19.80;;;23.50;99.90;;;;;;5135233;27;20451;-71
2022/10/09 09:29:50;;;;;;;21.63;17.87;;;23.30;99.90;;;;;;5135383;27;20416;-71
2022/10/09 09:32:23;;;;;;;19.93;17.80;;;23.20;99.90;;;;;;5134949;27;20415;-71
2022/10/09 09:34:49;;;;;;;20.57;18.57;;;23.10;99.90;;;;;;5116687;27;20443;-71
2022/10/09 09:37:15;;;;;;;19.83;17.83;;;23.00;99.90;;;;;;5116767;27;20423;-70
2022/10/09 09:39:41;;;;;;;19.40;17.43;;;22.90;99.90;;;;;;5135173;27;20196;-71
2022/10/09 09:42:14;;;;;;;20.17;18.17;;;22.80;99.90;;;;;;5116649;28;20416;-71
2022/10/09 09:44:48;;;;;;;24.07;20.03;;;22.70;99.90;;;;;;5117028;27;20200;-71
2022/10/09 09:47:33;;;;;;;22.60;20.30;;;22.70;99.90;;;;;;5134961;27;20470;-71
2022/10/09 09:50:01;;;;;;;21.33;19.20;;;22.60;99.90;;;;;;5135048;27;20915;-71
2022/10/09 09:52:35;;;;;;;21.90;19.40;;;22.50;99.90;;;;;;5134991;27;20486;-71
2022/10/09 09:55:01;;;;;;;24.57;21.37;;;22.50;99.90;;;;;;5134891;27;20484;-71
2022/10/09 09:57:31;;;;;;;25.40;20.70;;;22.40;99.90;;;;;;5134972;27;20419;-71
2022/10/09 10:00:27;;;;;;;24.57;20.80;;;22.40;99.90;;;;;;5116349;27;20464;-71
2022/10/09 10:03:15;;;;;;;22.37;19.97;;;22.30;99.90;;;;;;5113183;27;20428;-71
2022/10/09 10:05:42;;;;;;;20.30;18.20;;;22.20;99.90;;;;;;5134855;27;20457;-71
2022/10/09 10:08:34;;;;;;;22.30;19.93;;;22.20;99.90;;;;;;5116420;28;20466;-71
2022/10/09 10:11:04;;;;;;;20.00;18.00;;;22.20;99.90;;;;;;5129768;27;20451;-71
2022/10/09 10:13:37;;;;;;;21.77;19.00;;;22.20;99.90;;;;;;5135080;28;20434;-71
2022/10/09 10:16:06;;;;;;;19.60;17.60;;;22.10;99.90;;;;;;5134676;27;20423;-71
2022/10/09 10:18:38;;;;;;;26.00;20.07;;;22.10;99.90;;;;;;5134635;28;20411;-71
2022/10/09 10:21:13;;;;;;;21.37;18.97;;;22.10;99.90;;;;;;5134600;27;20422;-71
2022/10/09 10:24:04;;;;;;;20.70;18.50;;;22.10;99.90;;;;;;5134672;28;20459;-72
2022/10/09 10:26:38;;;;;;;21.10;18.87;;;22.00;99.90;;;;;;5134708;27;20436;-71
2022/10/09 10:29:18;;;;;;;21.80;19.50;;;22.10;99.90;;;;;;5135086;28;20420;-71
2022/10/09 10:32:10;;;;;;;22.57;20.00;;;22.00;99.90;;;;;;5116165;28;20415;-71
2022/10/09 10:34:59;;;;;;;19.40;17.37;;;22.10;99.90;;;;;;5115905;28;20442;-71
2022/10/09 10:37:58;;;;;;;21.57;19.23;;;22.00;99.90;;;;;;5134465;28;20415;-71
2022/10/09 10:40:26;;;;;;;21.77;18.10;;;22.00;99.90;;;;;;5134479;27;20510;-71
2022/10/09 10:43:04;;;;;;;21.83;19.53;;;22.00;99.90;;;;;;5134870;27;20435;-71
2022/10/09 10:45:33;;;;;;;20.00;17.90;;;22.00;99.90;;;;;;5138557;27;20418;-71
2022/10/09 10:48:01;;;;;;;20.80;18.70;;;22.00;99.90;;;;;;5138520;27;20860;-71
2022/10/09 10:50:35;;;;;;;19.03;16.50;;;21.90;99.90;;;;;;5119892;27;20443;-71
2022/10/09 10:53:10;;;;;;;22.10;18.47;;;21.80;99.90;;;;;;5138606;27;20418;-71
2022/10/09 10:55:57;;;;;;;23.47;18.67;;;21.80;99.90;;;;;;5119782;27;20445;-71
2022/10/09 10:58:29;;;;;;;22.27;20.07;;;21.70;99.90;;;;;;5138702;27;20427;-70
2022/10/09 11:01:00;;;;;;;21.70;19.33;;;21.70;99.90;;;;;;5138134;27;20435;-70
2022/10/09 11:03:38;;;;;;;18.53;16.73;;;21.70;99.90;;;;;;5119773;27;20419;-71
2022/10/09 11:06:15;;;;;;;19.53;16.80;;;21.60;99.90;;;;;;5138131;27;20419;-71
2022/10/09 11:09:10;;;;;;;17.50;15.70;;;21.60;99.90;;;;;;5138427;27;20775;-71
2022/10/09 11:11:46;;;;;;;19.37;16.73;;;21.50;99.90;;;;;;5138212;27;20888;-70
2022/10/09 11:14:27;;;;;;;17.60;15.90;;;21.50;99.90;;;;;;5137859;27;20732;-71
2022/10/09 11:17:09;;;;;;;18.63;16.80;;;21.50;99.90;;;;;;5119408;27;20487;-71
2022/10/09 11:19:56;;;;;;;19.00;17.20;;;21.50;99.90;;;;;;5119345;27;20442;-70
2022/10/09 11:22:30;;;;;;;18.60;16.80;;;21.50;99.90;;;;;;5119060;27;20537;-71
2022/10/09 11:25:14;;;;;;;18.57;16.57;;;21.50;99.90;;;;;;5137780;27;20771;-71
2022/10/09 11:27:55;;;;;;;18.83;16.97;;;21.40;99.90;;;;;;5137822;27;20552;-71
2022/10/09 11:30:21;;;;;;;18.07;15.80;;;21.40;99.90;;;;;;5137730;27;20423;-71
2022/10/09 11:33:26;;;;;;;19.20;16.33;;;21.50;99.90;;;;;;5119294;27;20844;-71
2022/10/09 11:36:03;;;;;;;17.77;16.00;;;21.50;99.90;;;;;;5122280;27;20207;-71
2022/10/09 11:38:42;;;;;;;34.23;18.90;;;21.50;99.90;;;;;;5109819;27;20978;-71
2022/10/09 11:41:09;;;;;;;20.07;17.93;;;21.50;99.90;;;;;;5111958;27;20459;-71
2022/10/09 11:43:45;;;;;;;20.17;16.20;;;21.60;99.90;;;;;;5125558;27;20426;-71
2022/10/09 11:46:39;;;;;;;17.87;16.17;;;21.60;99.90;;;;;;5113229;28;20470;-71
2022/10/09 11:49:16;;;;;;;17.97;16.17;;;21.60;99.90;;;;;;5116378;28;20440;-71
2022/10/09 11:52:01;;;;;;;18.00;16.30;;;21.60;99.90;;;;;;5115328;28;20408;-71
2022/10/09 11:54:28;;;;;;;18.73;15.97;;;21.60;99.90;;;;;;5097737;28;20507;-71
2022/10/09 11:56:54;;;;;;;17.60;15.97;;;21.60;99.90;;;;;;5114384;28;20489;-71
2022/10/09 11:59:22;;;;;;;19.53;17.60;;;21.60;99.90;;;;;;5114394;28;20413;-71
2022/10/09 12:01:48;;;;;;;19.90;17.47;;;21.60;99.90;;;;;;5114321;28;20453;-70
2022/10/09 12:04:15;;;;;;;17.73;15.67;;;21.60;99.90;;;;;;5114302;28;20853;-72
2022/10/09 12:06:50;;;;;;;18.20;16.50;;;21.60;99.90;;;;;;5095914;28;20239;-72
2022/10/09 12:09:40;;;;;;;18.60;16.60;;;21.60;99.90;;;;;;5114696;28;20420;-72
2022/10/09 12:12:19;;;;;;;18.70;16.70;;;21.60;99.90;;;;;;5114591;28;20907;-72
2022/10/09 12:14:48;;;;;;;18.70;16.70;;;21.60;99.90;;;;;;5115827;28;20952;-72
2022/10/09 12:17:34;;;;;;;19.10;17.20;;;21.60;99.90;;;;;;5115723;28;20500;-71
2022/10/09 12:20:23;;;;;;;18.17;16.10;;;21.60;99.90;;;;;;5115726;28;20447;-73
2022/10/09 12:22:56;;;;;;;19.47;16.70;;;21.60;99.90;;;;;;5115980;28;20467;-72
2022/10/09 12:25:37;;;;;;;18.33;15.67;;;21.60;99.90;;;;;;5115772;28;20518;-72
2022/10/09 12:28:04;;;;;;;16.93;15.13;;;21.60;99.90;;;;;;5116085;28;20471;-72
2022/10/09 12:30:40;;;;;;;16.10;14.60;;;21.60;99.90;;;;;;5096213;28;20446;-72
2022/10/09 12:33:17;;;;;;;14.77;13.40;;;21.60;99.90;;;;;;5114032;28;20443;-72
2022/10/09 12:35:46;;;;;;;15.30;13.83;;;21.50;99.90;;;;;;5113595;28;20442;-72
2022/10/09 12:38:25;;;;;;;16.73;13.40;;;21.50;99.90;;;;;;5113842;28;20412;-73
2022/10/09 12:40:53;;;;;;;17.10;13.60;;;21.50;99.90;;;;;;5094687;28;20516;-73
2022/10/09 12:43:21;;;;;;;14.97;13.27;;;21.50;99.90;;;;;;5132569;27;20839;-72
2022/10/09 12:45:49;;;;;;;14.13;12.80;;;21.50;99.90;;;;;;5133879;27;20423;-72